| Date | Time | Temp. (oF) | Dew Point (oF) | Rel. Hum. (%) | Press. (in.) | Wind Dir. | Wind Speed (mph) | Hourly Rainfall (in.) |
|
|---|---|---|---|---|---|---|---|---|---|
| 1 | 08/10 | 00:00 | 63 | 57 | 81 | 29.85 | SW | 0 | 0.00 |
| 2 | 08/09 | 23:00 | 64 | 56 | 78 | 29.86 | SW | 0 | 0.00 |
| 3 | 08/09 | 22:00 | 67 | 56 | 70 | 29.86 | SW | 0 | 0.00 |
| 4 | 08/09 | 21:00 | 71 | 55 | 59 | 29.85 | SW | 0 | 0.00 |
| 5 | 08/09 | 20:00 | 76 | 53 | 46 | 29.83 | SW | 0 | 0.00 |
| 6 | 08/09 | 19:00 | 77 | 52 | 43 | 29.81 | WSW | 2 | 0.00 |
| 7 | 08/09 | 18:00 | 80 | 53 | 40 | 29.82 | SSW | 4 | 0.00 |
| 8 | 08/09 | 17:00 | 80 | 54 | 42 | 29.82 | WSW | 4 | 0.00 |
| 9 | 08/09 | 16:00 | 80 | 53 | 41 | 29.84 | WSW | 7 | 0.00 |
| 10 | 08/09 | 15:00 | 80 | 53 | 41 | 29.85 | SW | 5 | 0.00 |
| 11 | 08/09 | 14:00 | 79 | 53 | 42 | 29.87 | WNW | 3 | 0.00 |
| 12 | 08/09 | 13:00 | 77 | 56 | 49 | 29.89 | NNW | 4 | 0.00 |
| 13 | 08/09 | 12:00 | 76 | 57 | 53 | 29.89 | N | 3 | 0.00 |
| 14 | 08/09 | 11:00 | 73 | 58 | 61 | 29.90 | NNW | 4 | 0.00 |
| 15 | 08/09 | 10:00 | 70 | 57 | 65 | 29.91 | NNE | 5 | 0.00 |
| 16 | 08/09 | 09:00 | 68 | 57 | 69 | 29.90 | NW | 7 | 0.00 |
| 17 | 08/09 | 08:00 | 65 | 57 | 78 | 29.90 | WSW | 4 | 0.00 |
| 18 | 08/09 | 07:00 | 61 | 55 | 83 | 29.88 | W | 2 | 0.00 |
| 19 | 08/09 | 06:00 | 60 | 57 | 90 | 29.87 | NNW | 2 | 0.00 |
| 20 | 08/09 | 05:00 | 59 | 55 | 89 | 29.85 | NW | 0 | 0.00 |
| 21 | 08/09 | 04:00 | 60 | 55 | 86 | 29.84 | NW | 0 | 0.00 |
| 22 | 08/09 | 03:00 | 63 | 55 | 77 | 29.83 | WSW | 0 | 0.00 |
| 23 | 08/09 | 02:00 | 65 | 56 | 74 | 29.83 | WNW | 4 | 0.00 |
| 24 | 08/09 | 01:00 | 65 | 56 | 73 | 29.83 | W | 1 | 0.00 |